sensor_id;sensor_type;location;lat;lon;timestamp;P1;durP1;ratioP1;P2;durP2;ratioP2
9150;SDS011;4610;50.006;7.490;2022-10-16T00:00:45;7.63;;;1.33;;
9150;SDS011;4610;50.006;7.490;2022-10-16T00:03:12;5.37;;;1.07;;
9150;SDS011;4610;50.006;7.490;2022-10-16T00:05:39;3.70;;;1.03;;
9150;SDS011;4610;50.006;7.490;2022-10-16T00:08:08;4.70;;;1.30;;
9150;SDS011;4610;50.006;7.490;2022-10-16T00:10:35;1.40;;;1.00;;
9150;SDS011;4610;50.006;7.490;2022-10-16T00:13:02;2.73;;;1.00;;
9150;SDS011;4610;50.006;7.490;2022-10-16T00:15:31;1.17;;;1.07;;
9150;SDS011;4610;50.006;7.490;2022-10-16T00:18:01;1.33;;;1.17;;
9150;SDS011;4610;50.006;7.490;2022-10-16T00:20:28;1.67;;;1.10;;
9150;SDS011;4610;50.006;7.490;2022-10-16T00:22:56;1.50;;;1.03;;
9150;SDS011;4610;50.006;7.490;2022-10-16T00:25:23;3.10;;;1.00;;
9150;SDS011;4610;50.006;7.490;2022-10-16T00:27:49;1.83;;;1.10;;
9150;SDS011;4610;50.006;7.490;2022-10-16T00:30:16;1.20;;;1.10;;
9150;SDS011;4610;50.006;7.490;2022-10-16T00:32:44;2.27;;;1.10;;
9150;SDS011;4610;50.006;7.490;2022-10-16T00:35:11;2.63;;;1.10;;
9150;SDS011;4610;50.006;7.490;2022-10-16T00:37:38;1.60;;;1.20;;
9150;SDS011;4610;50.006;7.490;2022-10-16T00:40:05;2.20;;;1.20;;
9150;SDS011;4610;50.006;7.490;2022-10-16T00:42:32;2.73;;;1.17;;
9150;SDS011;4610;50.006;7.490;2022-10-16T00:44:59;3.07;;;1.07;;
9150;SDS011;4610;50.006;7.490;2022-10-16T00:47:26;1.13;;;1.03;;
9150;SDS011;4610;50.006;7.490;2022-10-16T00:49:57;1.60;;;1.33;;
9150;SDS011;4610;50.006;7.490;2022-10-16T00:52:27;3.43;;;1.43;;
9150;SDS011;4610;50.006;7.490;2022-10-16T00:54:54;6.20;;;1.50;;
9150;SDS011;4610;50.006;7.490;2022-10-16T00:57:22;1.70;;;1.37;;
9150;SDS011;4610;50.006;7.490;2022-10-16T00:59:49;3.37;;;1.20;;
9150;SDS011;4610;50.006;7.490;2022-10-16T01:02:17;1.63;;;1.30;;
9150;SDS011;4610;50.006;7.490;2022-10-16T01:04:45;1.97;;;1.40;;
9150;SDS011;4610;50.006;7.490;2022-10-16T01:07:16;3.87;;;1.20;;
9150;SDS011;4610;50.006;7.490;2022-10-16T01:09:56;4.50;;;1.33;;
9150;SDS011;4610;50.006;7.490;2022-10-16T01:12:33;3.23;;;1.20;;
9150;SDS011;4610;50.006;7.490;2022-10-16T01:15:08;1.20;;;1.10;;
9150;SDS011;4610;50.006;7.490;2022-10-16T01:17:41;3.53;;;1.30;;
9150;SDS011;4610;50.006;7.490;2022-10-16T01:20:16;1.50;;;1.20;;
9150;SDS011;4610;50.006;7.490;2022-10-16T01:22:59;1.57;;;1.30;;
9150;SDS011;4610;50.006;7.490;2022-10-16T01:25:36;3.63;;;1.20;;
9150;SDS011;4610;50.006;7.490;2022-10-16T01:28:17;3.60;;;1.20;;
9150;SDS011;4610;50.006;7.490;2022-10-16T01:30:47;4.27;;;1.20;;
9150;SDS011;4610;50.006;7.490;2022-10-16T01:33:20;4.60;;;1.30;;
9150;SDS011;4610;50.006;7.490;2022-10-16T01:35:52;2.43;;;1.17;;
9150;SDS011;4610;50.006;7.490;2022-10-16T01:38:23;1.93;;;1.23;;
9150;SDS011;4610;50.006;7.490;2022-10-16T01:40:56;1.60;;;1.20;;
9150;SDS011;4610;50.006;7.490;2022-10-16T01:43:28;3.40;;;1.17;;
9150;SDS011;4610;50.006;7.490;2022-10-16T01:46:02;3.43;;;1.20;;
9150;SDS011;4610;50.006;7.490;2022-10-16T01:48:29;3.83;;;1.40;;
9150;SDS011;4610;50.006;7.490;2022-10-16T01:50:58;7.23;;;1.73;;
9150;SDS011;4610;50.006;7.490;2022-10-16T01:53:28;3.93;;;1.50;;
9150;SDS011;4610;50.006;7.490;2022-10-16T01:55:56;8.80;;;1.33;;
9150;SDS011;4610;50.006;7.490;2022-10-16T01:58:25;2.63;;;1.50;;
9150;SDS011;4610;50.006;7.490;2022-10-16T02:00:59;3.47;;;1.40;;
9150;SDS011;4610;50.006;7.490;2022-10-16T02:03:27;1.77;;;1.30;;
9150;SDS011;4610;50.006;7.490;2022-10-16T02:05:55;1.70;;;1.13;;
9150;SDS011;4610;50.006;7.490;2022-10-16T02:08:24;1.40;;;1.20;;
9150;SDS011;4610;50.006;7.490;2022-10-16T02:10:54;7.10;;;1.37;;
9150;SDS011;4610;50.006;7.490;2022-10-16T02:13:23;3.03;;;1.40;;
9150;SDS011;4610;50.006;7.490;2022-10-16T02:15:55;2.97;;;1.40;;
9150;SDS011;4610;50.006;7.490;2022-10-16T02:18:22;2.73;;;1.60;;
9150;SDS011;4610;50.006;7.490;2022-10-16T02:20:51;3.93;;;1.70;;
9150;SDS011;4610;50.006;7.490;2022-10-16T02:23:24;8.17;;;3.03;;
9150;SDS011;4610;50.006;7.490;2022-10-16T02:26:00;4.07;;;2.10;;
9150;SDS011;4610;50.006;7.490;2022-10-16T02:28:31;7.13;;;3.10;;
9150;SDS011;4610;50.006;7.490;2022-10-16T02:31:06;9.40;;;3.60;;
9150;SDS011;4610;50.006;7.490;2022-10-16T02:33:36;3.60;;;1.97;;
9150;SDS011;4610;50.006;7.490;2022-10-16T02:36:03;2.80;;;1.53;;
9150;SDS011;4610;50.006;7.490;2022-10-16T02:38:31;2.60;;;1.40;;
9150;SDS011;4610;50.006;7.490;2022-10-16T02:40:59;1.73;;;1.07;;
9150;SDS011;4610;50.006;7.490;2022-10-16T02:43:26;1.30;;;1.20;;
9150;SDS011;4610;50.006;7.490;2022-10-16T02:45:52;4.27;;;0.93;;
9150;SDS011;4610;50.006;7.490;2022-10-16T02:48:20;2.77;;;1.20;;
9150;SDS011;4610;50.006;7.490;2022-10-16T02:50:47;2.23;;;1.07;;
9150;SDS011;4610;50.006;7.490;2022-10-16T02:53:14;1.10;;;1.00;;
9150;SDS011;4610;50.006;7.490;2022-10-16T02:55:41;1.90;;;0.90;;
9150;SDS011;4610;50.006;7.490;2022-10-16T02:58:07;1.20;;;0.73;;
9150;SDS011;4610;50.006;7.490;2022-10-16T03:00:34;1.20;;;1.03;;
9150;SDS011;4610;50.006;7.490;2022-10-16T03:03:01;3.87;;;0.93;;
9150;SDS011;4610;50.006;7.490;2022-10-16T03:05:29;1.33;;;0.70;;
9150;SDS011;4610;50.006;7.490;2022-10-16T03:07:56;0.90;;;0.70;;
9150;SDS011;4610;50.006;7.490;2022-10-16T03:10:25;1.97;;;0.77;;
9150;SDS011;4610;50.006;7.490;2022-10-16T03:12:52;0.90;;;0.80;;
9150;SDS011;4610;50.006;7.490;2022-10-16T03:15:18;2.63;;;0.60;;
9150;SDS011;4610;50.006;7.490;2022-10-16T03:17:45;0.73;;;0.73;;
9150;SDS011;4610;50.006;7.490;2022-10-16T03:20:12;3.07;;;0.80;;
9150;SDS011;4610;50.006;7.490;2022-10-16T03:22:40;5.30;;;1.00;;
9150;SDS011;4610;50.006;7.490;2022-10-16T03:25:07;2.30;;;0.80;;
9150;SDS011;4610;50.006;7.490;2022-10-16T03:27:34;0.90;;;0.90;;
9150;SDS011;4610;50.006;7.490;2022-10-16T03:30:00;0.83;;;0.83;;
9150;SDS011;4610;50.006;7.490;2022-10-16T03:32:27;2.23;;;1.00;;
9150;SDS011;4610;50.006;7.490;2022-10-16T03:34:54;3.73;;;0.80;;
9150;SDS011;4610;50.006;7.490;2022-10-16T03:37:22;4.30;;;1.07;;
9150;SDS011;4610;50.006;7.490;2022-10-16T03:39:50;3.57;;;1.10;;
9150;SDS011;4610;50.006;7.490;2022-10-16T03:42:17;2.23;;;1.10;;
9150;SDS011;4610;50.006;7.490;2022-10-16T03:44:44;2.20;;;1.20;;
9150;SDS011;4610;50.006;7.490;2022-10-16T03:47:11;2.23;;;1.40;;
9150;SDS011;4610;50.006;7.490;2022-10-16T03:49:37;2.73;;;1.20;;
9150;SDS011;4610;50.006;7.490;2022-10-16T03:52:04;2.57;;;1.20;;
9150;SDS011;4610;50.006;7.490;2022-10-16T03:54:31;2.83;;;1.20;;
9150;SDS011;4610;50.006;7.490;2022-10-16T03:56:59;2.50;;;1.00;;
9150;SDS011;4610;50.006;7.490;2022-10-16T03:59:26;5.30;;;0.90;;
9150;SDS011;4610;50.006;7.490;2022-10-16T04:01:52;1.93;;;1.20;;
9150;SDS011;4610;50.006;7.490;2022-10-16T04:04:19;4.13;;;1.03;;
9150;SDS011;4610;50.006;7.490;2022-10-16T04:06:46;1.27;;;1.17;;
9150;SDS011;4610;50.006;7.490;2022-10-16T04:09:13;1.87;;;1.10;;
9150;SDS011;4610;50.006;7.490;2022-10-16T04:11:39;1.23;;;1.00;;
9150;SDS011;4610;50.006;7.490;2022-10-16T04:14:08;1.00;;;0.90;;
9150;SDS011;4610;50.006;7.490;2022-10-16T04:16:34;6.90;;;1.00;;
9150;SDS011;4610;50.006;7.490;2022-10-16T04:19:01;2.40;;;0.90;;
9150;SDS011;4610;50.006;7.490;2022-10-16T04:21:28;2.60;;;1.00;;
9150;SDS011;4610;50.006;7.490;2022-10-16T04:23:55;2.33;;;1.10;;
9150;SDS011;4610;50.006;7.490;2022-10-16T04:26:21;0.97;;;0.97;;
9150;SDS011;4610;50.006;7.490;2022-10-16T04:28:48;1.53;;;1.00;;
9150;SDS011;4610;50.006;7.490;2022-10-16T04:31:16;1.37;;;0.87;;
9150;SDS011;4610;50.006;7.490;2022-10-16T04:33:43;1.20;;;0.90;;
9150;SDS011;4610;50.006;7.490;2022-10-16T04:36:10;0.90;;;0.80;;
9150;SDS011;4610;50.006;7.490;2022-10-16T04:38:37;2.13;;;0.90;;
9150;SDS011;4610;50.006;7.490;2022-10-16T04:41:04;1.80;;;0.97;;
9150;SDS011;4610;50.006;7.490;2022-10-16T04:43:32;4.33;;;1.17;;
9150;SDS011;4610;50.006;7.490;2022-10-16T04:45:59;1.00;;;0.90;;
9150;SDS011;4610;50.006;7.490;2022-10-16T04:48:28;1.67;;;0.90;;
9150;SDS011;4610;50.006;7.490;2022-10-16T04:50:54;1.20;;;1.00;;
9150;SDS011;4610;50.006;7.490;2022-10-16T04:53:21;2.43;;;1.00;;
9150;SDS011;4610;50.006;7.490;2022-10-16T04:55:48;2.10;;;1.00;;
9150;SDS011;4610;50.006;7.490;2022-10-16T04:58:15;2.10;;;0.93;;
9150;SDS011;4610;50.006;7.490;2022-10-16T05:00:42;7.20;;;0.80;;
9150;SDS011;4610;50.006;7.490;2022-10-16T05:03:11;1.10;;;1.00;;
9150;SDS011;4610;50.006;7.490;2022-10-16T05:05:41;3.80;;;1.10;;
9150;SDS011;4610;50.006;7.490;2022-10-16T05:08:09;1.70;;;1.03;;
9150;SDS011;4610;50.006;7.490;2022-10-16T05:10:36;2.03;;;0.90;;
9150;SDS011;4610;50.006;7.490;2022-10-16T05:13:03;1.13;;;0.90;;
9150;SDS011;4610;50.006;7.490;2022-10-16T05:15:29;2.47;;;0.83;;
9150;SDS011;4610;50.006;7.490;2022-10-16T05:17:56;1.00;;;0.90;;
9150;SDS011;4610;50.006;7.490;2022-10-16T05:20:23;1.20;;;1.10;;
9150;SDS011;4610;50.006;7.490;2022-10-16T05:22:51;1.27;;;1.10;;
9150;SDS011;4610;50.006;7.490;2022-10-16T05:25:18;1.63;;;1.10;;
9150;SDS011;4610;50.006;7.490;2022-10-16T05:27:46;1.30;;;1.07;;
9150;SDS011;4610;50.006;7.490;2022-10-16T05:30:14;1.83;;;1.00;;
9150;SDS011;4610;50.006;7.490;2022-10-16T05:32:41;2.30;;;0.93;;
9150;SDS011;4610;50.006;7.490;2022-10-16T05:35:08;3.10;;;1.20;;
9150;SDS011;4610;50.006;7.490;2022-10-16T05:37:34;2.93;;;1.20;;
9150;SDS011;4610;50.006;7.490;2022-10-16T05:40:03;3.13;;;1.20;;
9150;SDS011;4610;50.006;7.490;2022-10-16T05:42:30;1.60;;;1.30;;
9150;SDS011;4610;50.006;7.490;2022-10-16T05:44:57;1.50;;;1.40;;
9150;SDS011;4610;50.006;7.490;2022-10-16T05:47:23;4.67;;;1.30;;
9150;SDS011;4610;50.006;7.490;2022-10-16T05:49:50;1.73;;;1.00;;
9150;SDS011;4610;50.006;7.490;2022-10-16T05:52:17;3.00;;;1.50;;
9150;SDS011;4610;50.006;7.490;2022-10-16T05:54:44;1.57;;;1.30;;
9150;SDS011;4610;50.006;7.490;2022-10-16T05:57:12;2.70;;;2.13;;
9150;SDS011;4610;50.006;7.490;2022-10-16T05:59:38;1.90;;;1.70;;
9150;SDS011;4610;50.006;7.490;2022-10-16T06:02:05;3.43;;;2.50;;
9150;SDS011;4610;50.006;7.490;2022-10-16T06:04:34;5.87;;;2.60;;
9150;SDS011;4610;50.006;7.490;2022-10-16T06:07:01;6.30;;;2.83;;
9150;SDS011;4610;50.006;7.490;2022-10-16T06:09:28;2.90;;;2.33;;
9150;SDS011;4610;50.006;7.490;2022-10-16T06:11:54;3.80;;;2.40;;
9150;SDS011;4610;50.006;7.490;2022-10-16T06:14:22;3.30;;;1.87;;
9150;SDS011;4610;50.006;7.490;2022-10-16T06:16:49;2.37;;;2.17;;
9150;SDS011;4610;50.006;7.490;2022-10-16T06:19:16;6.43;;;2.47;;
9150;SDS011;4610;50.006;7.490;2022-10-16T06:21:43;5.30;;;2.23;;
9150;SDS011;4610;50.006;7.490;2022-10-16T06:24:10;3.97;;;2.57;;
9150;SDS011;4610;50.006;7.490;2022-10-16T06:26:37;4.33;;;2.40;;
9150;SDS011;4610;50.006;7.490;2022-10-16T06:29:04;5.73;;;2.57;;
9150;SDS011;4610;50.006;7.490;2022-10-16T06:31:32;4.00;;;2.80;;
9150;SDS011;4610;50.006;7.490;2022-10-16T06:33:59;6.03;;;3.30;;
9150;SDS011;4610;50.006;7.490;2022-10-16T06:36:27;3.37;;;2.60;;
9150;SDS011;4610;50.006;7.490;2022-10-16T06:38:54;3.30;;;2.67;;
9150;SDS011;4610;50.006;7.490;2022-10-16T06:41:21;2.93;;;2.40;;
9150;SDS011;4610;50.006;7.490;2022-10-16T06:43:48;2.80;;;2.50;;
9150;SDS011;4610;50.006;7.490;2022-10-16T06:46:16;5.40;;;2.53;;
9150;SDS011;4610;50.006;7.490;2022-10-16T06:48:46;6.63;;;2.23;;
9150;SDS011;4610;50.006;7.490;2022-10-16T06:51:13;7.83;;;2.20;;
9150;SDS011;4610;50.006;7.490;2022-10-16T06:53:42;2.10;;;1.90;;
9150;SDS011;4610;50.006;7.490;2022-10-16T06:56:11;2.40;;;2.20;;
9150;SDS011;4610;50.006;7.490;2022-10-16T06:58:39;2.60;;;2.10;;
9150;SDS011;4610;50.006;7.490;2022-10-16T07:01:06;6.17;;;2.30;;
9150;SDS011;4610;50.006;7.490;2022-10-16T07:03:35;2.73;;;2.00;;
9150;SDS011;4610;50.006;7.490;2022-10-16T07:06:05;4.70;;;2.40;;
9150;SDS011;4610;50.006;7.490;2022-10-16T07:08:33;3.57;;;2.30;;
9150;SDS011;4610;50.006;7.490;2022-10-16T07:11:01;3.07;;;2.07;;
9150;SDS011;4610;50.006;7.490;2022-10-16T07:13:28;3.13;;;1.70;;
9150;SDS011;4610;50.006;7.490;2022-10-16T07:15:55;3.27;;;2.00;;
9150;SDS011;4610;50.006;7.490;2022-10-16T07:18:22;2.80;;;1.83;;
9150;SDS011;4610;50.006;7.490;2022-10-16T07:20:51;2.20;;;2.00;;
9150;SDS011;4610;50.006;7.490;2022-10-16T07:23:19;8.40;;;2.20;;
9150;SDS011;4610;50.006;7.490;2022-10-16T07:25:52;2.43;;;2.23;;
9150;SDS011;4610;50.006;7.490;2022-10-16T07:28:20;2.47;;;2.27;;
9150;SDS011;4610;50.006;7.490;2022-10-16T07:30:47;2.60;;;2.07;;
9150;SDS011;4610;50.006;7.490;2022-10-16T07:33:14;4.83;;;2.10;;
9150;SDS011;4610;50.006;7.490;2022-10-16T07:35:46;4.93;;;2.53;;
9150;SDS011;4610;50.006;7.490;2022-10-16T07:38:14;5.50;;;2.30;;
9150;SDS011;4610;50.006;7.490;2022-10-16T07:40:42;10.07;;;7.67;;
9150;SDS011;4610;50.006;7.490;2022-10-16T07:43:09;6.10;;;3.60;;
9150;SDS011;4610;50.006;7.490;2022-10-16T07:45:36;8.53;;;4.00;;
9150;SDS011;4610;50.006;7.490;2022-10-16T07:48:03;11.80;;;7.77;;
9150;SDS011;4610;50.006;7.490;2022-10-16T07:50:30;21.40;;;13.43;;
9150;SDS011;4610;50.006;7.490;2022-10-16T07:52:56;10.30;;;8.67;;
9150;SDS011;4610;50.006;7.490;2022-10-16T07:55:23;11.43;;;7.57;;
9150;SDS011;4610;50.006;7.490;2022-10-16T07:57:51;8.73;;;5.60;;
9150;SDS011;4610;50.006;7.490;2022-10-16T08:00:18;5.83;;;5.17;;
9150;SDS011;4610;50.006;7.490;2022-10-16T08:02:45;11.30;;;5.07;;
9150;SDS011;4610;50.006;7.490;2022-10-16T08:05:11;5.80;;;4.50;;
9150;SDS011;4610;50.006;7.490;2022-10-16T08:07:38;6.17;;;4.77;;
9150;SDS011;4610;50.006;7.490;2022-10-16T08:10:05;7.37;;;5.30;;
9150;SDS011;4610;50.006;7.490;2022-10-16T08:12:32;5.43;;;4.40;;
9150;SDS011;4610;50.006;7.490;2022-10-16T08:15:00;4.43;;;3.60;;
9150;SDS011;4610;50.006;7.490;2022-10-16T08:17:27;6.40;;;4.33;;
9150;SDS011;4610;50.006;7.490;2022-10-16T08:19:54;3.20;;;2.90;;
9150;SDS011;4610;50.006;7.490;2022-10-16T08:22:21;7.70;;;3.60;;
9150;SDS011;4610;50.006;7.490;2022-10-16T08:24:47;7.90;;;3.17;;
9150;SDS011;4610;50.006;7.490;2022-10-16T08:27:14;2.60;;;2.30;;
9150;SDS011;4610;50.006;7.490;2022-10-16T08:29:41;3.13;;;2.50;;
9150;SDS011;4610;50.006;7.490;2022-10-16T08:32:09;2.10;;;1.87;;
9150;SDS011;4610;50.006;7.490;2022-10-16T08:34:36;1.97;;;1.77;;
9150;SDS011;4610;50.006;7.490;2022-10-16T08:37:02;2.47;;;1.43;;
9150;SDS011;4610;50.006;7.490;2022-10-16T08:39:29;2.70;;;1.10;;
9150;SDS011;4610;50.006;7.490;2022-10-16T08:47:49;1.57;;;1.13;;
9150;SDS011;4610;50.006;7.490;2022-10-16T08:50:22;0.90;;;0.90;;
9150;SDS011;4610;50.006;7.490;2022-10-16T08:52:52;1.63;;;1.00;;
9150;SDS011;4610;50.006;7.490;2022-10-16T08:55:28;1.33;;;0.80;;
9150;SDS011;4610;50.006;7.490;2022-10-16T08:57:58;0.77;;;0.70;;
9150;SDS011;4610;50.006;7.490;2022-10-16T09:00:25;0.97;;;0.60;;
9150;SDS011;4610;50.006;7.490;2022-10-16T09:02:56;2.70;;;0.80;;
9150;SDS011;4610;50.006;7.490;2022-10-16T09:05:36;0.67;;;0.47;;
9150;SDS011;4610;50.006;7.490;2022-10-16T09:08:16;0.40;;;0.40;;
9150;SDS011;4610;50.006;7.490;2022-10-16T09:10:49;0.43;;;0.43;;
9150;SDS011;4610;50.006;7.490;2022-10-16T09:13:26;1.00;;;0.60;;
9150;SDS011;4610;50.006;7.490;2022-10-16T09:15:56;0.30;;;0.30;;
9150;SDS011;4610;50.006;7.490;2022-10-16T09:18:32;4.73;;;0.60;;
9150;SDS011;4610;50.006;7.490;2022-10-16T09:21:08;1.57;;;0.63;;
9150;SDS011;4610;50.006;7.490;2022-10-16T09:23:40;3.33;;;0.57;;
9150;SDS011;4610;50.006;7.490;2022-10-16T09:26:09;0.60;;;0.40;;
9150;SDS011;4610;50.006;7.490;2022-10-16T09:28:38;0.90;;;0.50;;
9150;SDS011;4610;50.006;7.490;2022-10-16T09:31:07;0.70;;;0.67;;
9150;SDS011;4610;50.006;7.490;2022-10-16T09:33:42;0.40;;;0.40;;
9150;SDS011;4610;50.006;7.490;2022-10-16T09:36:11;1.20;;;0.60;;
9150;SDS011;4610;50.006;7.490;2022-10-16T09:38:39;1.33;;;0.80;;
9150;SDS011;4610;50.006;7.490;2022-10-16T09:41:13;0.47;;;0.40;;
9150;SDS011;4610;50.006;7.490;2022-10-16T09:43:45;0.80;;;0.47;;
9150;SDS011;4610;50.006;7.490;2022-10-16T09:46:21;2.57;;;0.70;;
9150;SDS011;4610;50.006;7.490;2022-10-16T09:48:53;4.10;;;0.63;;
9150;SDS011;4610;50.006;7.490;2022-10-16T09:51:21;0.47;;;0.40;;
9150;SDS011;4610;50.006;7.490;2022-10-16T09:53:53;1.40;;;0.50;;
9150;SDS011;4610;50.006;7.490;2022-10-16T09:56:22;0.73;;;0.40;;
9150;SDS011;4610;50.006;7.490;2022-10-16T09:58:51;0.40;;;0.40;;
9150;SDS011;4610;50.006;7.490;2022-10-16T10:01:19;0.60;;;0.47;;
9150;SDS011;4610;50.006;7.490;2022-10-16T10:03:48;0.40;;;0.40;;
9150;SDS011;4610;50.006;7.490;2022-10-16T10:06:21;1.00;;;0.50;;
9150;SDS011;4610;50.006;7.490;2022-10-16T10:08:56;2.53;;;0.40;;
9150;SDS011;4610;50.006;7.490;2022-10-16T10:11:40;0.47;;;0.37;;
9150;SDS011;4610;50.006;7.490;2022-10-16T10:14:15;0.20;;;0.20;;
9150;SDS011;4610;50.006;7.490;2022-10-16T10:16:47;0.73;;;0.57;;
9150;SDS011;4610;50.006;7.490;2022-10-16T10:19:15;0.90;;;0.40;;
9150;SDS011;4610;50.006;7.490;2022-10-16T10:21:45;1.27;;;0.43;;
9150;SDS011;4610;50.006;7.490;2022-10-16T10:24:12;1.33;;;0.60;;
9150;SDS011;4610;50.006;7.490;2022-10-16T10:26:41;0.40;;;0.40;;
9150;SDS011;4610;50.006;7.490;2022-10-16T10:29:16;0.53;;;0.50;;
9150;SDS011;4610;50.006;7.490;2022-10-16T10:31:54;2.37;;;0.50;;
9150;SDS011;4610;50.006;7.490;2022-10-16T10:34:40;0.40;;;0.40;;
9150;SDS011;4610;50.006;7.490;2022-10-16T10:37:25;0.47;;;0.47;;
9150;SDS011;4610;50.006;7.490;2022-10-16T10:40:05;0.67;;;0.50;;
9150;SDS011;4610;50.006;7.490;2022-10-16T10:42:40;0.70;;;0.70;;
9150;SDS011;4610;50.006;7.490;2022-10-16T10:45:17;1.57;;;0.83;;
9150;SDS011;4610;50.006;7.490;2022-10-16T10:47:54;0.80;;;0.80;;
9150;SDS011;4610;50.006;7.490;2022-10-16T10:50:33;1.70;;;0.90;;
9150;SDS011;4610;50.006;7.490;2022-10-16T10:53:09;2.30;;;0.60;;
9150;SDS011;4610;50.006;7.490;2022-10-16T10:55:45;0.57;;;0.57;;
9150;SDS011;4610;50.006;7.490;2022-10-16T10:58:24;2.57;;;0.60;;
9150;SDS011;4610;50.006;7.490;2022-10-16T11:01:10;0.50;;;0.50;;
9150;SDS011;4610;50.006;7.490;2022-10-16T11:06:40;1.97;;;0.67;;
9150;SDS011;4610;50.006;7.490;2022-10-16T11:09:12;3.60;;;0.63;;
9150;SDS011;4610;50.006;7.490;2022-10-16T11:11:43;1.00;;;0.60;;
9150;SDS011;4610;50.006;7.490;2022-10-16T11:14:15;3.27;;;1.03;;
9150;SDS011;4610;50.006;7.490;2022-10-16T11:16:47;0.70;;;0.70;;
9150;SDS011;4610;50.006;7.490;2022-10-16T11:19:21;2.40;;;0.67;;
9150;SDS011;4610;50.006;7.490;2022-10-16T11:22:00;3.70;;;0.80;;
9150;SDS011;4610;50.006;7.490;2022-10-16T11:24:34;0.70;;;0.70;;
9150;SDS011;4610;50.006;7.490;2022-10-16T11:27:08;1.03;;;0.70;;
9150;SDS011;4610;50.006;7.490;2022-10-16T11:29:40;0.63;;;0.63;;
9150;SDS011;4610;50.006;7.490;2022-10-16T11:32:14;3.70;;;1.00;;
9150;SDS011;4610;50.006;7.490;2022-10-16T11:34:49;0.90;;;0.90;;
9150;SDS011;4610;50.006;7.490;2022-10-16T11:37:20;0.80;;;0.80;;
9150;SDS011;4610;50.006;7.490;2022-10-16T11:39:54;1.23;;;1.07;;
9150;SDS011;4610;50.006;7.490;2022-10-16T11:42:26;2.77;;;1.00;;
9150;SDS011;4610;50.006;7.490;2022-10-16T11:45:00;1.30;;;1.20;;
9150;SDS011;4610;50.006;7.490;2022-10-16T11:47:35;1.23;;;1.10;;
9150;SDS011;4610;50.006;7.490;2022-10-16T11:50:09;1.50;;;1.10;;
9150;SDS011;4610;50.006;7.490;2022-10-16T11:52:44;1.20;;;1.10;;
9150;SDS011;4610;50.006;7.490;2022-10-16T11:55:20;1.73;;;1.30;;
9150;SDS011;4610;50.006;7.490;2022-10-16T11:57:52;5.57;;;1.83;;
9150;SDS011;4610;50.006;7.490;2022-10-16T12:00:23;1.90;;;1.17;;
9150;SDS011;4610;50.006;7.490;2022-10-16T12:02:55;3.20;;;1.20;;
9150;SDS011;4610;50.006;7.490;2022-10-16T12:05:28;2.07;;;1.33;;
9150;SDS011;4610;50.006;7.490;2022-10-16T12:08:03;1.23;;;1.13;;
9150;SDS011;4610;50.006;7.490;2022-10-16T12:10:36;2.73;;;1.17;;
9150;SDS011;4610;50.006;7.490;2022-10-16T12:13:04;2.00;;;1.57;;
9150;SDS011;4610;50.006;7.490;2022-10-16T12:15:32;1.97;;;1.30;;
9150;SDS011;4610;50.006;7.490;2022-10-16T12:18:00;2.30;;;1.40;;
9150;SDS011;4610;50.006;7.490;2022-10-16T12:20:28;1.50;;;1.40;;
9150;SDS011;4610;50.006;7.490;2022-10-16T12:22:58;1.47;;;1.20;;
9150;SDS011;4610;50.006;7.490;2022-10-16T12:25:27;2.07;;;1.40;;
9150;SDS011;4610;50.006;7.490;2022-10-16T12:28:01;3.87;;;1.60;;
9150;SDS011;4610;50.006;7.490;2022-10-16T12:30:30;2.10;;;1.33;;
9150;SDS011;4610;50.006;7.490;2022-10-16T12:33:00;1.40;;;1.30;;
9150;SDS011;4610;50.006;7.490;2022-10-16T12:35:30;4.07;;;1.40;;
9150;SDS011;4610;50.006;7.490;2022-10-16T12:38:05;4.07;;;1.40;;
9150;SDS011;4610;50.006;7.490;2022-10-16T12:40:34;1.60;;;1.50;;
9150;SDS011;4610;50.006;7.490;2022-10-16T12:43:23;3.40;;;1.37;;
9150;SDS011;4610;50.006;7.490;2022-10-16T12:45:59;2.27;;;1.30;;
9150;SDS011;4610;50.006;7.490;2022-10-16T12:48:28;1.80;;;1.40;;
9150;SDS011;4610;50.006;7.490;2022-10-16T12:50:56;1.70;;;1.30;;
9150;SDS011;4610;50.006;7.490;2022-10-16T12:53:23;1.70;;;1.40;;
9150;SDS011;4610;50.006;7.490;2022-10-16T12:55:56;1.57;;;1.47;;
9150;SDS011;4610;50.006;7.490;2022-10-16T12:58:40;1.50;;;1.40;;
9150;SDS011;4610;50.006;7.490;2022-10-16T13:01:18;1.40;;;1.30;;
9150;SDS011;4610;50.006;7.490;2022-10-16T13:03:59;1.67;;;1.50;;
9150;SDS011;4610;50.006;7.490;2022-10-16T13:06:38;3.37;;;1.70;;
9150;SDS011;4610;50.006;7.490;2022-10-16T13:09:25;1.87;;;1.60;;
9150;SDS011;4610;50.006;7.490;2022-10-16T13:12:05;3.20;;;2.00;;
9150;SDS011;4610;50.006;7.490;2022-10-16T13:14:56;1.60;;;1.47;;
9150;SDS011;4610;50.006;7.490;2022-10-16T13:17:36;5.33;;;1.80;;
9150;SDS011;4610;50.006;7.490;2022-10-16T13:20:11;1.70;;;1.60;;
9150;SDS011;4610;50.006;7.490;2022-10-16T13:22:45;2.20;;;1.77;;
9150;SDS011;4610;50.006;7.490;2022-10-16T13:25:19;1.40;;;1.30;;
9150;SDS011;4610;50.006;7.490;2022-10-16T13:27:54;3.50;;;1.83;;
9150;SDS011;4610;50.006;7.490;2022-10-16T13:30:34;2.00;;;1.80;;
9150;SDS011;4610;50.006;7.490;2022-10-16T13:33:06;3.30;;;1.80;;
9150;SDS011;4610;50.006;7.490;2022-10-16T13:35:46;2.83;;;1.67;;
9150;SDS011;4610;50.006;7.490;2022-10-16T13:38:16;2.27;;;1.80;;
9150;SDS011;4610;50.006;7.490;2022-10-16T13:40:49;2.60;;;1.90;;
9150;SDS011;4610;50.006;7.490;2022-10-16T13:43:18;2.00;;;1.80;;
9150;SDS011;4610;50.006;7.490;2022-10-16T13:45:58;2.10;;;1.90;;
9150;SDS011;4610;50.006;7.490;2022-10-16T13:48:26;1.97;;;1.70;;
9150;SDS011;4610;50.006;7.490;2022-10-16T13:51:01;2.27;;;1.80;;
9150;SDS011;4610;50.006;7.490;2022-10-16T13:53:32;7.00;;;2.00;;
9150;SDS011;4610;50.006;7.490;2022-10-16T13:56:01;4.43;;;1.97;;
9150;SDS011;4610;50.006;7.490;2022-10-16T13:58:30;2.50;;;1.50;;
9150;SDS011;4610;50.006;7.490;2022-10-16T14:00:59;3.90;;;1.63;;
9150;SDS011;4610;50.006;7.490;2022-10-16T14:03:28;1.73;;;1.63;;
9150;SDS011;4610;50.006;7.490;2022-10-16T14:05:56;6.27;;;1.67;;
9150;SDS011;4610;50.006;7.490;2022-10-16T14:08:25;6.30;;;1.50;;
9150;SDS011;4610;50.006;7.490;2022-10-16T14:10:55;2.03;;;1.83;;
9150;SDS011;4610;50.006;7.490;2022-10-16T14:13:26;1.73;;;1.50;;
9150;SDS011;4610;50.006;7.490;2022-10-16T14:15:59;2.00;;;1.80;;
9150;SDS011;4610;50.006;7.490;2022-10-16T14:18:31;2.10;;;1.63;;
9150;SDS011;4610;50.006;7.490;2022-10-16T14:21:02;1.60;;;1.50;;
9150;SDS011;4610;50.006;7.490;2022-10-16T14:23:31;1.93;;;1.73;;
9150;SDS011;4610;50.006;7.490;2022-10-16T14:26:05;3.47;;;1.90;;
9150;SDS011;4610;50.006;7.490;2022-10-16T14:28:39;4.40;;;1.60;;
9150;SDS011;4610;50.006;7.490;2022-10-16T14:31:22;3.50;;;1.83;;
9150;SDS011;4610;50.006;7.490;2022-10-16T14:33:51;5.33;;;1.90;;
9150;SDS011;4610;50.006;7.490;2022-10-16T14:36:18;4.43;;;2.30;;
9150;SDS011;4610;50.006;7.490;2022-10-16T14:38:48;4.53;;;1.70;;
9150;SDS011;4610;50.006;7.490;2022-10-16T14:41:20;2.70;;;2.00;;
9150;SDS011;4610;50.006;7.490;2022-10-16T14:43:49;2.77;;;2.20;;
9150;SDS011;4610;50.006;7.490;2022-10-16T14:46:19;2.83;;;2.20;;
9150;SDS011;4610;50.006;7.490;2022-10-16T14:48:51;3.13;;;2.73;;
9150;SDS011;4610;50.006;7.490;2022-10-16T14:51:29;3.40;;;3.10;;
9150;SDS011;4610;50.006;7.490;2022-10-16T14:53:56;3.13;;;2.90;;
9150;SDS011;4610;50.006;7.490;2022-10-16T14:56:23;5.03;;;3.37;;
9150;SDS011;4610;50.006;7.490;2022-10-16T14:58:53;5.90;;;3.30;;
9150;SDS011;4610;50.006;7.490;2022-10-16T15:01:23;5.23;;;3.43;;
9150;SDS011;4610;50.006;7.490;2022-10-16T15:03:49;3.67;;;3.10;;
9150;SDS011;4610;50.006;7.490;2022-10-16T15:06:18;4.57;;;3.60;;
9150;SDS011;4610;50.006;7.490;2022-10-16T15:08:45;4.70;;;3.30;;
9150;SDS011;4610;50.006;7.490;2022-10-16T15:11:13;5.00;;;3.30;;
9150;SDS011;4610;50.006;7.490;2022-10-16T15:13:41;5.20;;;3.40;;
9150;SDS011;4610;50.006;7.490;2022-10-16T15:16:09;5.03;;;2.93;;
9150;SDS011;4610;50.006;7.490;2022-10-16T15:18:39;10.40;;;3.27;;
9150;SDS011;4610;50.006;7.490;2022-10-16T15:21:06;4.37;;;3.50;;
9150;SDS011;4610;50.006;7.490;2022-10-16T15:23:33;5.90;;;3.73;;
9150;SDS011;4610;50.006;7.490;2022-10-16T15:26:00;3.83;;;3.40;;
9150;SDS011;4610;50.006;7.490;2022-10-16T15:28:26;6.70;;;4.20;;
9150;SDS011;4610;50.006;7.490;2022-10-16T15:30:53;4.33;;;3.90;;
9150;SDS011;4610;50.006;7.490;2022-10-16T15:33:22;4.50;;;3.67;;
9150;SDS011;4610;50.006;7.490;2022-10-16T15:35:53;4.60;;;3.50;;
9150;SDS011;4610;50.006;7.490;2022-10-16T15:38:21;3.90;;;3.50;;
9150;SDS011;4610;50.006;7.490;2022-10-16T15:40:49;6.50;;;3.20;;